Urb Munoz Rivera, Puerto Rico
Current Conditions -  °F | °C
As of 3:56 PM on Tuesday 25 Nov 2014 (Local Time) from TJSJ Reporting Station
Broken Clouds Broken Clouds  
Wind Chill: 83°   Ceiling: 11000
Heat Index: 88°   Visibility: 10mi
Dew Point: 72°   Wind: 17mph
Humidity: 69%   Direction: 70°ENE
Pressure: 30"   Gusts: 29mph
Location:  18.3866°N, 66.1135°W
Report Text: TJSJ 251956Z 07015G25KT 10SM SCT031 SCT075 BKN110 28/22 A3000 RMK AO2 SLP158 T02830222
Loading
Personal Weather Stations






























Interactive Weather Map New forecast layout! Learn more

10-Day Weather Forecast

Advertisements
Track Severe Weather on mobile